createdAt,value
2019-01-31T00:00:03.985Z,0.00
2019-01-31T00:01:03.920Z,0.00
2019-01-31T00:02:03.911Z,0.00
2019-01-31T00:03:03.937Z,0.00
2019-01-31T00:04:03.912Z,0.00
2019-01-31T00:05:03.872Z,0.00
2019-01-31T00:06:03.868Z,0.00
2019-01-31T00:07:03.862Z,0.00
2019-01-31T00:08:03.840Z,0.00
2019-01-31T00:09:03.861Z,0.00
2019-01-31T00:10:03.828Z,0.00
2019-01-31T00:11:03.806Z,0.00
2019-01-31T00:12:03.793Z,0.00
2019-01-31T00:13:03.781Z,0.00
2019-01-31T00:14:03.789Z,0.00
2019-01-31T00:15:03.794Z,0.00
2019-01-31T00:16:03.756Z,0.00
2019-01-31T00:17:03.737Z,0.00
2019-01-31T00:18:03.725Z,0.00
2019-01-31T00:19:03.721Z,0.00
2019-01-31T00:20:03.722Z,0.00
2019-01-31T00:21:03.741Z,0.00
2019-01-31T00:22:04.054Z,0.00
2019-01-31T00:23:03.669Z,0.00
2019-01-31T00:24:03.660Z,0.00
2019-01-31T00:25:04.319Z,0.00
2019-01-31T00:26:03.641Z,0.00
2019-01-31T00:27:03.640Z,0.00
2019-01-31T00:28:03.623Z,0.00
2019-01-31T00:29:03.603Z,0.00
2019-01-31T00:30:03.626Z,0.00
2019-01-31T00:31:03.608Z,0.00
2019-01-31T00:32:03.574Z,0.00
2019-01-31T00:33:03.566Z,0.00
2019-01-31T00:34:03.548Z,0.00
2019-01-31T00:35:03.562Z,0.00
2019-01-31T00:36:03.529Z,0.00
2019-01-31T00:37:03.525Z,0.00
2019-01-31T00:38:03.529Z,0.00
2019-01-31T00:39:03.503Z,0.00
2019-01-31T00:40:03.499Z,0.00
2019-01-31T00:41:03.474Z,0.00
2019-01-31T00:42:03.469Z,0.00
2019-01-31T00:43:03.448Z,0.00
2019-01-31T00:44:03.434Z,0.00
2019-01-31T00:45:03.452Z,0.00
2019-01-31T00:46:03.412Z,0.00
2019-01-31T00:47:03.415Z,0.00
2019-01-31T00:48:03.399Z,0.00
2019-01-31T00:49:03.388Z,0.00
2019-01-31T00:50:03.369Z,0.00
2019-01-31T00:51:03.402Z,0.00
2019-01-31T00:52:03.384Z,0.00
2019-01-31T00:53:03.345Z,0.00
2019-01-31T00:54:03.383Z,0.00
2019-01-31T00:55:03.323Z,0.00
2019-01-31T00:56:03.341Z,0.00
2019-01-31T00:57:03.287Z,0.00
2019-01-31T00:58:03.284Z,0.00
2019-01-31T00:59:03.263Z,0.00
2019-01-31T01:00:03.254Z,0.00
2019-01-31T01:01:03.257Z,0.00
2019-01-31T01:02:03.243Z,0.00
2019-01-31T01:03:03.247Z,0.00
2019-01-31T01:04:03.211Z,0.00
2019-01-31T01:05:03.203Z,0.00
2019-01-31T01:06:03.205Z,0.00
2019-01-31T01:07:03.176Z,0.00
2019-01-31T01:08:03.159Z,0.00
2019-01-31T01:09:07.890Z,0.00
2019-01-31T01:10:04.202Z,0.00
2019-01-31T01:11:03.161Z,0.00
2019-01-31T01:12:04.594Z,0.00
2019-01-31T01:13:03.109Z,0.00
2019-01-31T01:14:03.106Z,0.00
2019-01-31T01:15:03.101Z,0.00
2019-01-31T01:16:03.104Z,0.00
2019-01-31T01:17:03.103Z,0.00
2019-01-31T01:18:03.052Z,0.00
2019-01-31T01:19:03.038Z,0.00
2019-01-31T01:20:03.028Z,0.00
2019-01-31T01:21:03.066Z,0.00
2019-01-31T01:22:03.025Z,0.00
2019-01-31T01:23:03.000Z,0.00
2019-01-31T01:24:03.013Z,0.00
2019-01-31T01:25:02.972Z,0.00
2019-01-31T01:26:02.982Z,0.00
2019-01-31T01:27:02.958Z,0.00
2019-01-31T01:28:02.938Z,0.00
2019-01-31T01:29:03.019Z,0.00
2019-01-31T01:30:02.947Z,0.00
2019-01-31T01:31:02.936Z,0.00
2019-01-31T01:32:02.887Z,0.00
2019-01-31T01:33:02.884Z,0.00
2019-01-31T01:34:02.870Z,0.00
2019-01-31T01:35:02.894Z,0.00
2019-01-31T01:36:02.859Z,0.00
2019-01-31T01:37:02.864Z,0.00
2019-01-31T01:38:02.834Z,0.00
2019-01-31T01:39:02.813Z,0.00
2019-01-31T01:40:02.804Z,0.00
2019-01-31T01:41:02.792Z,0.00
2019-01-31T01:42:02.811Z,0.00
2019-01-31T01:43:02.767Z,0.00
2019-01-31T01:44:02.763Z,0.00
2019-01-31T01:45:02.747Z,0.00
2019-01-31T01:46:02.737Z,0.00
2019-01-31T01:47:02.738Z,0.00
2019-01-31T01:48:02.724Z,0.00
2019-01-31T01:49:02.702Z,0.00
2019-01-31T01:50:02.694Z,0.00
2019-01-31T01:51:02.686Z,0.00
2019-01-31T01:52:02.687Z,0.00
2019-01-31T01:53:02.662Z,0.00
2019-01-31T01:54:02.674Z,0.00
2019-01-31T01:55:02.635Z,0.00
2019-01-31T01:56:02.622Z,0.00
2019-01-31T01:57:02.657Z,0.00
2019-01-31T01:58:02.597Z,0.00
2019-01-31T01:59:02.617Z,0.00
2019-01-31T02:00:02.586Z,0.00
2019-01-31T02:01:02.574Z,0.00
2019-01-31T02:02:02.588Z,0.00
2019-01-31T02:03:02.581Z,0.00
2019-01-31T02:04:02.537Z,0.00
2019-01-31T02:05:02.524Z,0.00
2019-01-31T02:06:02.513Z,0.00
2019-01-31T02:07:02.521Z,0.00
2019-01-31T02:08:02.506Z,0.00
2019-01-31T02:09:02.478Z,0.00
2019-01-31T02:10:02.466Z,0.00
2019-01-31T02:11:02.457Z,0.00
2019-01-31T02:12:02.472Z,0.00
2019-01-31T02:13:02.433Z,0.00
2019-01-31T02:14:02.427Z,0.00
2019-01-31T02:15:02.411Z,0.00
2019-01-31T02:16:02.423Z,0.00
2019-01-31T02:17:02.418Z,0.00
2019-01-31T02:18:02.374Z,0.00
2019-01-31T02:19:02.365Z,0.00
2019-01-31T02:20:02.365Z,0.00
2019-01-31T02:21:02.358Z,0.00
2019-01-31T02:22:02.329Z,0.00
2019-01-31T02:23:02.341Z,0.00
2019-01-31T02:24:02.313Z,0.00
2019-01-31T02:25:02.299Z,0.00
2019-01-31T02:26:02.365Z,0.00
2019-01-31T02:27:02.291Z,0.00
2019-01-31T02:28:02.290Z,0.00
2019-01-31T02:29:02.260Z,0.00
2019-01-31T02:30:02.246Z,0.00
2019-01-31T02:31:02.233Z,0.00
2019-01-31T02:32:02.234Z,0.00
2019-01-31T02:33:02.230Z,0.00
2019-01-31T02:34:02.205Z,0.00
2019-01-31T02:35:02.190Z,0.00
2019-01-31T02:36:04.994Z,0.00
2019-01-31T02:37:02.200Z,0.00
2019-01-31T02:38:02.172Z,0.00
2019-01-31T02:39:02.147Z,0.00
2019-01-31T02:40:02.134Z,0.00
2019-01-31T02:41:02.136Z,0.00
2019-01-31T02:42:02.108Z,0.00
2019-01-31T02:43:02.121Z,0.00
2019-01-31T02:44:02.195Z,0.00
2019-01-31T02:45:02.078Z,0.00
2019-01-31T02:46:02.099Z,0.00
2019-01-31T02:47:02.054Z,0.00
2019-01-31T02:48:02.080Z,0.00
2019-01-31T02:49:02.034Z,0.00
2019-01-31T02:50:02.021Z,0.00
2019-01-31T02:51:02.008Z,0.00
2019-01-31T02:52:01.992Z,0.00
2019-01-31T02:53:02.031Z,0.00
2019-01-31T02:54:01.980Z,0.00
2019-01-31T02:55:01.973Z,0.00
2019-01-31T02:56:01.966Z,0.00
2019-01-31T02:57:01.942Z,0.00
2019-01-31T02:58:01.933Z,0.00
2019-01-31T02:59:01.933Z,0.00
2019-01-31T03:00:01.917Z,0.00
2019-01-31T03:01:01.910Z,0.00
2019-01-31T03:02:01.888Z,0.00
2019-01-31T03:03:01.877Z,0.00
2019-01-31T03:04:01.885Z,0.00
2019-01-31T03:05:01.853Z,0.00
2019-01-31T03:06:01.935Z,0.00
2019-01-31T03:07:01.828Z,0.00
2019-01-31T03:08:01.824Z,0.00
2019-01-31T03:09:01.858Z,0.00
2019-01-31T03:10:01.797Z,0.00
2019-01-31T03:11:01.795Z,0.00
2019-01-31T03:12:01.773Z,0.00
2019-01-31T03:13:01.763Z,0.00
2019-01-31T03:14:10.018Z,0.00
2019-01-31T03:15:02.762Z,0.00
2019-01-31T03:16:01.730Z,0.00
2019-01-31T03:17:01.715Z,0.00
2019-01-31T03:18:01.727Z,0.00
2019-01-31T03:19:01.716Z,0.00
2019-01-31T03:20:01.691Z,0.00
2019-01-31T03:21:01.675Z,0.00
2019-01-31T03:22:01.679Z,0.00
2019-01-31T03:23:01.650Z,0.00
2019-01-31T03:24:01.664Z,0.00
2019-01-31T03:25:01.627Z,0.00
2019-01-31T03:26:01.621Z,0.00
2019-01-31T03:27:01.604Z,0.00
2019-01-31T03:28:01.619Z,0.00
2019-01-31T03:29:01.609Z,0.00
2019-01-31T03:30:01.577Z,0.00
2019-01-31T03:31:01.562Z,0.00
2019-01-31T03:32:01.543Z,0.00
2019-01-31T03:33:01.541Z,0.00
2019-01-31T03:34:01.570Z,0.00
2019-01-31T03:35:01.518Z,0.00
2019-01-31T03:36:01.507Z,0.00
2019-01-31T03:37:01.509Z,0.00
2019-01-31T03:38:01.481Z,0.00
2019-01-31T03:39:01.495Z,0.00
2019-01-31T03:40:06.908Z,0.00
2019-01-31T03:41:02.448Z,0.00
2019-01-31T03:42:01.437Z,0.00
2019-01-31T03:43:01.439Z,0.00
2019-01-31T03:44:01.427Z,0.00
2019-01-31T03:45:01.437Z,0.00
2019-01-31T03:46:01.438Z,0.00
2019-01-31T03:47:01.385Z,0.00
2019-01-31T03:48:01.372Z,0.00
2019-01-31T03:49:01.359Z,0.00
2019-01-31T03:50:01.388Z,0.00
2019-01-31T03:51:01.338Z,0.00
2019-01-31T03:52:01.335Z,0.00
2019-01-31T03:53:01.318Z,0.00
2019-01-31T03:54:01.303Z,0.00
2019-01-31T03:55:01.314Z,0.00
2019-01-31T03:56:01.282Z,0.00
2019-01-31T03:57:01.272Z,0.00
2019-01-31T03:58:01.272Z,0.00
2019-01-31T03:59:01.256Z,0.00
2019-01-31T04:00:01.272Z,0.00
2019-01-31T04:01:01.229Z,0.00
2019-01-31T04:02:01.215Z,0.00
2019-01-31T04:03:01.210Z,0.00
2019-01-31T04:04:01.196Z,0.00
2019-01-31T04:05:01.212Z,0.00
2019-01-31T04:06:01.169Z,0.00
2019-01-31T04:07:01.172Z,0.00
2019-01-31T04:08:01.249Z,0.00
2019-01-31T04:09:01.140Z,0.00
2019-01-31T04:10:01.146Z,0.00
2019-01-31T04:11:01.129Z,0.00
2019-01-31T04:12:01.179Z,0.00
2019-01-31T04:13:01.104Z,0.00
2019-01-31T04:14:01.079Z,0.00
2019-01-31T04:15:01.116Z,0.00
2019-01-31T04:16:01.056Z,0.00
2019-01-31T04:17:01.050Z,0.00
2019-01-31T04:18:01.036Z,0.00
2019-01-31T04:19:01.045Z,0.00
2019-01-31T04:20:01.011Z,0.00
2019-01-31T04:21:01.023Z,0.00
2019-01-31T04:22:00.987Z,0.00
2019-01-31T04:23:00.982Z,0.00
2019-01-31T04:24:00.981Z,0.00
2019-01-31T04:25:00.956Z,0.00
2019-01-31T04:26:00.971Z,0.00
2019-01-31T04:27:00.953Z,0.00
2019-01-31T04:28:00.925Z,0.00
2019-01-31T04:29:00.915Z,0.00
2019-01-31T04:30:00.899Z,0.00
2019-01-31T04:31:00.934Z,0.00
2019-01-31T04:32:00.879Z,0.00
2019-01-31T04:33:00.876Z,0.00
2019-01-31T04:34:00.885Z,0.00
2019-01-31T04:35:00.844Z,0.00
2019-01-31T04:36:00.851Z,0.00
2019-01-31T04:37:00.821Z,0.00
2019-01-31T04:38:00.809Z,0.00
2019-01-31T04:39:00.845Z,0.00
2019-01-31T04:40:00.790Z,0.00
2019-01-31T04:41:00.839Z,0.00
2019-01-31T04:42:00.766Z,0.00
2019-01-31T04:43:00.755Z,0.00
2019-01-31T04:44:00.749Z,0.00
2019-01-31T04:45:00.733Z,0.00
2019-01-31T04:46:00.744Z,0.00
2019-01-31T04:47:00.710Z,0.00
2019-01-31T04:48:00.704Z,0.00
2019-01-31T04:49:00.684Z,0.00
2019-01-31T04:50:00.683Z,0.00
2019-01-31T04:51:00.702Z,0.00
2019-01-31T04:52:00.652Z,0.00
2019-01-31T04:53:00.652Z,0.00
2019-01-31T04:54:00.636Z,0.00
2019-01-31T04:55:00.616Z,0.00
2019-01-31T04:56:00.633Z,0.00
2019-01-31T04:57:00.618Z,0.00
2019-01-31T04:58:00.587Z,0.00
2019-01-31T04:59:00.598Z,0.00
2019-01-31T05:00:00.689Z,0.00
2019-01-31T05:01:00.558Z,0.00
2019-01-31T05:02:00.572Z,0.00
2019-01-31T05:03:00.533Z,0.00
2019-01-31T05:04:00.519Z,0.00
2019-01-31T05:05:00.555Z,0.00
2019-01-31T05:06:00.502Z,0.00
2019-01-31T05:07:00.531Z,0.00
2019-01-31T05:08:00.473Z,0.00
2019-01-31T05:09:00.468Z,0.00
2019-01-31T05:10:00.518Z,0.00
2019-01-31T05:11:00.446Z,0.00
2019-01-31T05:12:00.451Z,0.00
2019-01-31T05:13:00.417Z,0.00
2019-01-31T05:14:00.444Z,0.00
2019-01-31T05:15:00.409Z,0.00
2019-01-31T05:16:03.470Z,0.00
2019-01-31T05:17:00.388Z,0.00
2019-01-31T05:18:00.367Z,0.00
2019-01-31T05:19:00.371Z,0.00
2019-01-31T05:20:00.344Z,0.00
2019-01-31T05:21:00.340Z,0.00
2019-01-31T05:22:00.354Z,0.00
2019-01-31T05:23:00.307Z,0.00
2019-01-31T05:24:00.303Z,0.00
2019-01-31T05:25:00.328Z,0.00
2019-01-31T05:26:00.294Z,0.00
2019-01-31T05:27:00.283Z,0.00
2019-01-31T05:28:00.259Z,0.00
2019-01-31T05:29:00.237Z,0.00
2019-01-31T05:30:00.351Z,0.00
2019-01-31T05:31:00.216Z,0.00
2019-01-31T05:32:00.233Z,0.00
2019-01-31T05:33:00.212Z,0.00
2019-01-31T05:34:00.184Z,0.00
2019-01-31T05:35:00.348Z,0.00
2019-01-31T05:36:00.177Z,0.00
2019-01-31T05:37:00.148Z,0.00
2019-01-31T05:38:00.164Z,0.00
2019-01-31T05:39:00.138Z,0.00
2019-01-31T05:40:00.191Z,0.00
2019-01-31T05:41:00.110Z,0.00
2019-01-31T05:42:00.090Z,0.00
2019-01-31T05:43:00.097Z,0.00
2019-01-31T05:44:00.081Z,0.00
2019-01-31T05:45:00.085Z,0.00
2019-01-31T05:46:00.061Z,0.00
2019-01-31T05:47:00.053Z,0.00
2019-01-31T05:48:00.050Z,0.00
2019-01-31T05:49:00.019Z,0.00
2019-01-31T05:50:00.026Z,0.00
2019-01-31T05:50:59.996Z,0.00
2019-01-31T05:51:59.989Z,0.00
2019-01-31T05:52:59.995Z,0.00
2019-01-31T05:53:59.963Z,0.00
2019-01-31T05:54:59.981Z,0.00
2019-01-31T05:55:59.945Z,0.00
2019-01-31T05:56:59.930Z,0.00
2019-01-31T05:57:59.952Z,0.00
2019-01-31T05:58:59.898Z,0.00
2019-01-31T05:59:59.906Z,0.00
2019-01-31T06:00:59.876Z,0.00
2019-01-31T06:01:59.879Z,0.00
2019-01-31T06:02:59.873Z,0.00
2019-01-31T06:03:59.887Z,0.00
2019-01-31T06:04:59.848Z,0.00
2019-01-31T06:05:59.829Z,0.00
2019-01-31T06:07:10.652Z,0.00
2019-01-31T06:08:00.844Z,0.00
2019-01-31T06:08:59.786Z,0.00
2019-01-31T06:10:00.383Z,0.00
2019-01-31T06:11:07.092Z,0.00
2019-01-31T06:12:21.842Z,0.00
2019-01-31T06:13:06.299Z,0.00
2019-01-31T06:14:00.817Z,0.00
2019-01-31T06:15:02.318Z,0.00
2019-01-31T06:16:02.290Z,0.00
2019-01-31T06:17:01.015Z,0.00
2019-01-31T06:18:01.035Z,0.00
2019-01-31T06:19:00.540Z,0.00
2019-01-31T06:20:00.079Z,0.00
2019-01-31T06:21:02.281Z,0.00
2019-01-31T06:21:59.666Z,0.00
2019-01-31T06:23:01.321Z,0.00
2019-01-31T06:24:01.122Z,0.00
2019-01-31T06:25:00.940Z,0.00
2019-01-31T06:26:00.826Z,0.00
2019-01-31T06:27:02.300Z,0.00
2019-01-31T06:28:01.332Z,0.00
2019-01-31T06:29:02.287Z,0.00
2019-01-31T06:29:59.630Z,0.00
2019-01-31T06:31:01.090Z,4.00
2019-01-31T06:31:59.561Z,4.00
2019-01-31T06:32:59.528Z,0.00
2019-01-31T06:33:59.531Z,0.00
2019-01-31T06:34:59.505Z,4.00
2019-01-31T06:35:59.485Z,4.00
2019-01-31T06:36:59.494Z,4.00
2019-01-31T06:37:59.477Z,4.00
2019-01-31T06:38:59.478Z,4.00
2019-01-31T06:39:59.459Z,4.00
2019-01-31T06:40:59.461Z,8.00
2019-01-31T06:41:59.453Z,8.00
2019-01-31T06:42:59.418Z,8.00
2019-01-31T06:43:59.419Z,12.00
2019-01-31T06:44:59.393Z,8.00
2019-01-31T06:45:59.384Z,12.00
2019-01-31T06:46:59.367Z,12.00
2019-01-31T06:47:59.354Z,12.00
2019-01-31T06:48:59.386Z,12.00
2019-01-31T06:49:59.335Z,12.00
2019-01-31T06:50:59.327Z,12.00
2019-01-31T06:51:59.328Z,12.00
2019-01-31T06:52:59.307Z,16.00
2019-01-31T06:53:59.322Z,16.00
2019-01-31T06:54:59.278Z,16.00
2019-01-31T06:55:59.297Z,16.00
2019-01-31T06:56:59.262Z,20.00
2019-01-31T06:57:59.254Z,20.00
2019-01-31T06:58:59.245Z,20.00
2019-01-31T06:59:59.254Z,24.00
2019-01-31T07:00:59.213Z,24.00
2019-01-31T07:01:59.201Z,28.00
2019-01-31T07:02:59.193Z,32.00
2019-01-31T07:03:59.200Z,36.00
2019-01-31T07:04:59.172Z,40.00
2019-01-31T07:05:59.153Z,44.00
2019-01-31T07:06:59.148Z,48.00
2019-01-31T07:07:59.136Z,52.00
2019-01-31T07:08:59.158Z,52.00
2019-01-31T07:09:59.115Z,56.00
2019-01-31T07:10:59.122Z,60.00
2019-01-31T07:11:59.095Z,64.00
2019-01-31T07:12:59.081Z,76.00
2019-01-31T07:13:59.078Z,84.00
2019-01-31T07:14:59.068Z,88.00
2019-01-31T07:15:59.046Z,92.00
2019-01-31T07:16:59.032Z,104.00
2019-01-31T07:17:59.027Z,116.00
2019-01-31T07:18:59.028Z,124.00
2019-01-31T07:19:59.039Z,124.00
2019-01-31T07:20:59.002Z,132.00
2019-01-31T07:21:58.974Z,136.00
2019-01-31T07:22:58.964Z,144.00
2019-01-31T07:23:58.968Z,144.00
2019-01-31T07:24:58.961Z,152.00
2019-01-31T07:25:58.953Z,156.00
2019-01-31T07:26:58.930Z,156.00
2019-01-31T07:27:58.906Z,160.00
2019-01-31T07:28:58.896Z,160.00
2019-01-31T07:29:58.924Z,160.00
2019-01-31T07:30:58.878Z,160.00
2019-01-31T07:31:58.904Z,164.00
2019-01-31T07:32:58.853Z,164.00
2019-01-31T07:33:58.847Z,164.00
2019-01-31T07:34:58.851Z,168.00
2019-01-31T07:35:58.827Z,168.00
2019-01-31T07:36:58.812Z,172.00
2019-01-31T07:37:58.801Z,176.00
2019-01-31T07:38:58.798Z,180.00
2019-01-31T07:39:58.801Z,184.00
2019-01-31T07:40:58.769Z,188.00
2019-01-31T07:41:58.755Z,192.00
2019-01-31T07:42:58.760Z,188.00
2019-01-31T07:43:58.733Z,200.00
2019-01-31T07:44:58.768Z,208.00
2019-01-31T07:45:58.713Z,208.00
2019-01-31T07:46:58.696Z,204.00
2019-01-31T07:47:58.729Z,196.00
2019-01-31T07:48:58.682Z,188.00
2019-01-31T07:49:58.673Z,188.00
2019-01-31T07:50:58.693Z,192.00
2019-01-31T07:51:58.744Z,180.00
2019-01-31T07:52:58.654Z,160.00
2019-01-31T07:53:58.628Z,148.00
2019-01-31T07:55:01.792Z,140.00
2019-01-31T07:55:58.614Z,140.00
2019-01-31T07:56:58.594Z,136.00
2019-01-31T07:57:58.587Z,136.00
2019-01-31T07:58:58.566Z,132.00
2019-01-31T07:59:58.553Z,128.00
2019-01-31T08:00:58.570Z,128.00
2019-01-31T08:01:58.552Z,132.00
2019-01-31T08:02:58.537Z,128.00
2019-01-31T08:04:02.694Z,128.00
2019-01-31T08:04:58.504Z,136.00
2019-01-31T08:05:58.518Z,128.00
2019-01-31T08:06:58.479Z,116.00
2019-01-31T08:07:58.467Z,120.00
2019-01-31T08:08:58.453Z,120.00
2019-01-31T08:09:58.442Z,124.00
2019-01-31T08:10:58.455Z,128.00
2019-01-31T08:11:58.453Z,128.00
2019-01-31T08:12:58.407Z,124.00
2019-01-31T08:13:58.393Z,124.00
2019-01-31T08:14:58.387Z,136.00
2019-01-31T08:15:58.450Z,136.00
2019-01-31T08:16:58.369Z,140.00
2019-01-31T08:17:58.357Z,144.00
2019-01-31T08:18:58.356Z,148.00
2019-01-31T08:19:58.337Z,148.00
2019-01-31T08:20:58.358Z,148.00
2019-01-31T08:21:58.312Z,156.00
2019-01-31T08:23:00.195Z,152.00
2019-01-31T08:23:58.297Z,144.00
2019-01-31T08:24:58.277Z,144.00
2019-01-31T08:25:58.301Z,152.00
2019-01-31T08:26:58.357Z,160.00
2019-01-31T08:27:58.240Z,160.00
2019-01-31T08:28:58.231Z,152.00
2019-01-31T08:29:58.245Z,148.00
2019-01-31T08:30:58.215Z,152.00
2019-01-31T08:31:58.214Z,160.00
2019-01-31T08:32:58.183Z,168.00
2019-01-31T08:33:58.219Z,172.00
2019-01-31T08:34:58.165Z,184.00
2019-01-31T08:35:58.150Z,180.00
2019-01-31T08:36:58.268Z,192.00
2019-01-31T08:37:58.128Z,204.00
2019-01-31T08:38:58.125Z,204.00
2019-01-31T08:39:58.111Z,200.00
2019-01-31T08:40:58.097Z,220.00
2019-01-31T08:42:03.877Z,220.00
2019-01-31T08:42:59.077Z,220.00
2019-01-31T08:43:58.058Z,228.00
2019-01-31T08:44:58.057Z,244.00
2019-01-31T08:45:58.037Z,268.00
2019-01-31T08:46:58.053Z,288.00
2019-01-31T08:47:58.021Z,296.00
2019-01-31T08:48:58.005Z,316.00
2019-01-31T08:49:58.000Z,300.00
2019-01-31T08:50:57.981Z,304.00
2019-01-31T08:51:57.991Z,304.00
2019-01-31T08:52:57.970Z,308.00
2019-01-31T08:53:57.954Z,276.00
2019-01-31T08:54:57.934Z,256.00
2019-01-31T08:55:57.971Z,260.00
2019-01-31T08:56:57.938Z,272.00
2019-01-31T08:57:57.904Z,296.00
2019-01-31T08:58:57.892Z,312.00
2019-01-31T08:59:57.882Z,376.00
2019-01-31T09:00:57.957Z,424.00
2019-01-31T09:01:57.909Z,444.00
2019-01-31T09:02:57.863Z,468.00
2019-01-31T09:03:57.845Z,500.00
2019-01-31T09:04:57.828Z,592.00
2019-01-31T09:05:57.815Z,748.00
2019-01-31T09:06:57.818Z,860.00
2019-01-31T09:07:57.793Z,996.00
2019-01-31T09:08:57.783Z,1028.00
2019-01-31T09:09:57.787Z,856.00
2019-01-31T09:10:57.765Z,648.00
2019-01-31T09:11:57.776Z,532.00
2019-01-31T09:12:57.738Z,444.00
2019-01-31T09:13:57.746Z,400.00
2019-01-31T09:14:57.716Z,364.00
2019-01-31T09:15:57.713Z,340.00
2019-01-31T09:16:57.698Z,324.00
2019-01-31T09:17:57.710Z,320.00
2019-01-31T09:18:57.671Z,316.00
2019-01-31T09:19:57.657Z,304.00
2019-01-31T09:20:57.643Z,284.00
2019-01-31T09:21:57.650Z,272.00
2019-01-31T09:22:57.644Z,276.00
2019-01-31T09:23:57.620Z,276.00
2019-01-31T09:24:57.616Z,280.00
2019-01-31T09:25:57.592Z,280.00
2019-01-31T09:26:57.581Z,276.00
2019-01-31T09:27:57.593Z,292.00
2019-01-31T09:28:57.574Z,300.00
2019-01-31T09:29:57.550Z,300.00
2019-01-31T09:30:57.557Z,292.00
2019-01-31T09:31:57.536Z,300.00
2019-01-31T09:32:57.540Z,316.00
2019-01-31T09:33:57.507Z,336.00
2019-01-31T09:34:57.502Z,344.00
2019-01-31T09:35:57.484Z,336.00
2019-01-31T09:36:57.469Z,344.00
2019-01-31T09:37:57.488Z,344.00
2019-01-31T09:38:57.453Z,352.00
2019-01-31T09:39:57.524Z,380.00
2019-01-31T09:40:57.427Z,396.00
2019-01-31T09:41:57.423Z,372.00
2019-01-31T09:42:57.470Z,356.00
2019-01-31T09:43:57.395Z,384.00
2019-01-31T09:44:57.411Z,436.00
2019-01-31T09:45:57.380Z,436.00
2019-01-31T09:46:57.359Z,476.00
2019-01-31T09:47:57.373Z,544.00
2019-01-31T09:48:57.341Z,580.00
2019-01-31T09:49:57.338Z,656.00
2019-01-31T09:50:57.317Z,712.00
2019-01-31T09:51:57.307Z,700.00
2019-01-31T09:52:57.348Z,844.00
2019-01-31T09:53:57.286Z,1120.00
2019-01-31T09:54:57.270Z,1128.00
2019-01-31T09:55:57.291Z,992.00
2019-01-31T09:56:57.251Z,772.00
2019-01-31T09:57:57.236Z,916.00
2019-01-31T09:58:57.246Z,980.00
2019-01-31T09:59:57.216Z,928.00
2019-01-31T10:00:57.249Z,956.00
2019-01-31T10:01:57.198Z,1000.00
2019-01-31T10:02:57.177Z,1208.00
2019-01-31T10:03:57.198Z,1576.00
2019-01-31T10:04:57.158Z,1728.00
2019-01-31T10:05:57.146Z,1672.00
2019-01-31T10:06:57.133Z,1688.00
2019-01-31T10:07:57.145Z,1772.00
2019-01-31T10:08:57.131Z,1604.00
2019-01-31T10:09:57.140Z,1628.00
2019-01-31T10:10:57.169Z,1676.00
2019-01-31T10:11:57.119Z,1684.00
2019-01-31T10:12:57.102Z,1556.00
2019-01-31T10:13:57.135Z,1780.00
2019-01-31T10:14:57.059Z,1948.00
2019-01-31T10:15:57.079Z,2016.00
2019-01-31T10:16:57.108Z,1928.00
2019-01-31T10:17:57.046Z,1836.00
2019-01-31T10:18:57.025Z,1732.00
2019-01-31T10:19:57.088Z,1772.00
2019-01-31T10:20:57.097Z,1696.00
2019-01-31T10:21:57.181Z,1668.00
2019-01-31T10:22:56.951Z,1736.00
2019-01-31T10:23:57.037Z,1792.00
2019-01-31T10:24:56.992Z,1832.00
2019-01-31T10:25:56.927Z,1832.00
2019-01-31T10:26:56.905Z,1796.00
2019-01-31T10:27:56.900Z,1808.00
2019-01-31T10:28:56.903Z,1832.00
2019-01-31T10:29:56.877Z,1784.00
2019-01-31T10:30:56.893Z,1764.00
2019-01-31T10:31:56.850Z,1708.00
2019-01-31T10:32:56.847Z,1712.00
2019-01-31T10:33:56.867Z,1692.00
2019-01-31T10:34:56.815Z,1712.00
2019-01-31T10:35:56.808Z,1736.00
2019-01-31T10:36:56.806Z,1736.00
2019-01-31T10:37:56.795Z,1768.00
2019-01-31T10:38:56.773Z,1744.00
2019-01-31T10:39:56.781Z,1808.00
2019-01-31T10:40:56.757Z,1836.00
2019-01-31T10:41:56.739Z,1848.00
2019-01-31T10:42:56.725Z,1896.00
2019-01-31T10:43:56.712Z,1896.00
2019-01-31T10:44:56.738Z,1904.00
2019-01-31T10:45:56.691Z,1916.00
2019-01-31T10:46:56.697Z,1808.00
2019-01-31T10:47:56.677Z,1676.00
2019-01-31T10:48:56.692Z,1592.00
2019-01-31T10:49:56.665Z,1596.00
2019-01-31T10:50:58.532Z,1620.00
2019-01-31T10:51:56.645Z,1560.00
2019-01-31T10:52:56.617Z,1424.00
2019-01-31T10:53:56.608Z,1356.00
2019-01-31T10:54:56.631Z,1380.00
2019-01-31T10:55:56.575Z,1424.00
2019-01-31T10:56:56.579Z,1456.00
2019-01-31T10:57:56.599Z,1424.00
2019-01-31T10:58:56.549Z,1368.00
2019-01-31T10:59:56.558Z,1308.00
2019-01-31T11:00:56.539Z,1260.00
2019-01-31T11:01:56.516Z,1220.00
2019-01-31T11:02:56.507Z,1236.00
2019-01-31T11:03:56.488Z,1324.00
2019-01-31T11:04:56.491Z,1392.00
2019-01-31T11:05:56.464Z,1420.00
2019-01-31T11:06:56.462Z,1388.00
2019-01-31T11:07:59.445Z,1320.00
2019-01-31T11:08:56.429Z,1220.00
2019-01-31T11:09:56.446Z,1176.00
2019-01-31T11:10:56.409Z,1188.00
2019-01-31T11:11:56.405Z,1228.00
2019-01-31T11:13:00.911Z,1264.00
2019-01-31T11:13:56.378Z,1392.00
2019-01-31T11:14:56.381Z,1416.00
2019-01-31T11:15:56.348Z,1364.00
2019-01-31T11:16:56.342Z,1336.00
2019-01-31T11:17:56.346Z,1316.00
2019-01-31T11:18:56.320Z,1280.00
2019-01-31T11:19:56.328Z,1240.00
2019-01-31T11:20:56.295Z,1232.00
2019-01-31T11:21:56.281Z,1228.00
2019-01-31T11:22:56.276Z,1252.00
2019-01-31T11:23:56.275Z,1324.00
2019-01-31T11:24:56.252Z,1400.00
2019-01-31T11:25:56.266Z,1444.00
2019-01-31T11:26:57.155Z,1548.00
2019-01-31T11:27:56.216Z,1664.00
2019-01-31T11:28:56.202Z,1704.00
2019-01-31T11:29:56.213Z,1636.00
2019-01-31T11:30:56.202Z,1528.00
2019-01-31T11:31:56.168Z,1476.00
2019-01-31T11:32:56.152Z,1444.00
2019-01-31T11:33:56.142Z,1404.00
2019-01-31T11:34:56.150Z,1432.00
2019-01-31T11:35:56.141Z,1540.00
2019-01-31T11:36:56.111Z,1752.00
2019-01-31T11:37:56.103Z,1952.00
2019-01-31T11:38:56.086Z,2160.00
2019-01-31T11:39:56.077Z,2060.00
2019-01-31T11:40:56.087Z,1788.00
2019-01-31T11:41:56.052Z,1576.00
2019-01-31T11:42:56.040Z,1448.00
2019-01-31T11:43:56.030Z,1396.00
2019-01-31T11:44:56.018Z,1360.00
2019-01-31T11:45:56.030Z,1376.00
2019-01-31T11:46:56.002Z,1420.00
2019-01-31T11:47:56.024Z,1516.00
2019-01-31T11:48:55.978Z,1696.00
2019-01-31T11:49:55.966Z,1836.00
2019-01-31T11:50:55.973Z,1816.00
2019-01-31T11:51:55.946Z,1772.00
2019-01-31T11:52:56.027Z,1776.00
2019-01-31T11:53:55.946Z,1856.00
2019-01-31T11:54:55.910Z,1860.00
2019-01-31T11:55:55.977Z,1848.00
2019-01-31T11:57:05.259Z,1856.00
2019-01-31T11:57:56.869Z,1796.00
2019-01-31T11:58:55.870Z,1972.00
2019-01-31T11:59:55.848Z,2156.00
2019-01-31T12:00:55.872Z,2360.00
2019-01-31T12:01:55.832Z,2312.00
2019-01-31T12:02:55.813Z,2488.00
2019-01-31T12:03:55.814Z,2684.00
2019-01-31T12:04:55.805Z,2840.00
2019-01-31T12:05:55.786Z,2840.00
2019-01-31T12:06:55.785Z,2716.00
2019-01-31T12:07:55.767Z,2624.00
2019-01-31T12:08:55.759Z,2664.00
2019-01-31T12:09:55.781Z,2624.00
2019-01-31T12:10:55.753Z,2524.00
2019-01-31T12:11:55.734Z,2236.00
2019-01-31T12:12:55.704Z,2092.00
2019-01-31T12:13:55.702Z,1976.00
2019-01-31T12:14:55.684Z,2068.00
2019-01-31T12:15:55.673Z,2092.00
2019-01-31T12:16:55.687Z,2056.00
2019-01-31T12:17:55.666Z,2068.00
2019-01-31T12:18:55.642Z,2020.00
2019-01-31T12:19:55.630Z,1900.00
2019-01-31T12:20:55.624Z,1888.00
2019-01-31T12:21:55.629Z,1756.00
2019-01-31T12:22:55.597Z,1644.00
2019-01-31T12:23:55.585Z,1692.00
2019-01-31T12:24:55.571Z,1776.00
2019-01-31T12:25:55.576Z,1748.00
2019-01-31T12:26:55.574Z,1716.00
2019-01-31T12:27:55.546Z,1728.00
2019-01-31T12:28:55.534Z,1828.00
2019-01-31T12:29:55.515Z,1864.00
2019-01-31T12:30:56.504Z,1852.00
2019-01-31T12:31:55.514Z,1808.00
2019-01-31T12:32:55.507Z,1704.00
2019-01-31T12:33:55.485Z,1608.00
2019-01-31T12:34:55.460Z,1476.00
2019-01-31T12:35:55.447Z,1416.00
2019-01-31T12:36:55.463Z,1296.00
2019-01-31T12:37:55.427Z,1232.00
2019-01-31T12:38:55.424Z,1160.00
2019-01-31T12:39:55.415Z,1072.00
2019-01-31T12:40:55.410Z,1020.00
2019-01-31T12:41:55.402Z,1008.00
2019-01-31T12:42:55.387Z,1056.00
2019-01-31T12:43:55.356Z,1088.00
2019-01-31T12:44:55.369Z,1148.00
2019-01-31T12:45:55.344Z,1160.00
2019-01-31T12:46:55.341Z,1244.00
2019-01-31T12:47:55.344Z,1400.00
2019-01-31T12:48:55.307Z,1548.00